createdAt,value
2023-04-13T00:04:57.839Z,99275.06
2023-04-13T00:10:03.886Z,99282.72
2023-04-13T00:15:08.801Z,99264.03
2023-04-13T00:20:14.716Z,99263.25
2023-04-13T00:25:20.098Z,99269.16
2023-04-13T00:30:24.021Z,99283.44
2023-04-13T00:35:27.829Z,99280.97
2023-04-13T00:40:33.072Z,99275.13
2023-04-13T00:45:39.047Z,99252.13
2023-04-13T00:50:43.743Z,99255.72
2023-04-13T00:55:49.032Z,99279.75
2023-04-13T01:00:52.762Z,99272.81
2023-04-13T01:06:13.467Z,99273.84
2023-04-13T01:11:28.852Z,99285.59
2023-04-13T01:16:37.765Z,99286.44
2023-04-13T01:21:43.932Z,99280.62
2023-04-13T01:26:58.477Z,99313.16
2023-04-13T01:32:04.066Z,99326.81
2023-04-13T01:37:09.204Z,99343.91
2023-04-13T01:42:13.408Z,99355.06
2023-04-13T01:47:25.617Z,99350.69
2023-04-13T01:52:31.533Z,99364.31
2023-04-13T01:57:37.979Z,99372.84
2023-04-13T02:02:45.189Z,99378.66
2023-04-13T02:07:49.183Z,99397.31
2023-04-13T02:12:55.366Z,99411.34
2023-04-13T02:18:00.798Z,99431.91
2023-04-13T02:23:04.601Z,99433.88
2023-04-13T02:28:11.240Z,99436.09
2023-04-13T02:33:16.879Z,99438.94
2023-04-13T02:38:20.861Z,99441.25
2023-04-13T02:43:26.465Z,99446.34
2023-04-13T02:48:31.786Z,99447.41
2023-04-13T02:53:36.426Z,99460.13
2023-04-13T02:58:41.755Z,99458.63
2023-04-13T03:03:48.840Z,99469.38
2023-04-13T03:08:54.287Z,99478.66
2023-04-13T03:14:01.334Z,99491.69
2023-04-13T03:19:08.386Z,99504.69
2023-04-13T03:24:13.522Z,99507.38
2023-04-13T03:29:17.528Z,99515.25
2023-04-13T03:34:23.235Z,99524.31
2023-04-13T03:39:29.125Z,99528.78
2023-04-13T03:44:33.611Z,99539.16
2023-04-13T03:49:41.464Z,99549.63
2023-04-13T03:54:46.572Z,99556.53
2023-04-13T03:59:51.602Z,99563.28
2023-04-13T04:05:00.261Z,99575.16
2023-04-13T04:10:04.755Z,99584.75
2023-04-13T04:15:10.469Z,99592.50
2023-04-13T04:20:17.530Z,99598.38
2023-04-13T04:25:22.926Z,99612.09
2023-04-13T04:30:29.835Z,99606.41
2023-04-13T04:35:35.146Z,99615.56
2023-04-13T04:40:45.252Z,99613.78
2023-04-13T04:45:52.022Z,99633.13
2023-04-13T04:50:57.998Z,99623.19
2023-04-13T04:56:02.734Z,99635.69
2023-04-13T05:01:10.758Z,99636.97
2023-04-13T05:06:16.666Z,99638.59
2023-04-13T05:11:20.644Z,99647.09
2023-04-13T05:16:26.043Z,99665.41
2023-04-13T05:21:32.197Z,99674.03
2023-04-13T05:26:36.374Z,99669.91
2023-04-13T05:31:40.524Z,99670.16
2023-04-13T05:36:45.706Z,99678.12
2023-04-13T05:41:50.018Z,99687.63
2023-04-13T05:46:54.812Z,99706.16
2023-04-13T05:52:00.967Z,99705.91
2023-04-13T05:57:08.188Z,99723.25
2023-04-13T06:02:12.815Z,99734.00
2023-04-13T06:07:17.919Z,99743.53
2023-04-13T06:12:21.589Z,99746.50
2023-04-13T06:17:25.545Z,99759.28
2023-04-13T06:22:31.037Z,99761.34
2023-04-13T06:27:35.438Z,99765.69
2023-04-13T06:32:39.558Z,99765.88
2023-04-13T06:37:45.515Z,99775.59
2023-04-13T06:42:50.386Z,99781.75
2023-04-13T06:47:57.096Z,99798.00
2023-04-13T06:53:03.328Z,99799.72
2023-04-13T06:58:07.244Z,99809.69
2023-04-13T07:03:11.449Z,99810.97
2023-04-13T07:08:19.179Z,99811.44
2023-04-13T07:13:25.672Z,99826.53
2023-04-13T07:18:30.975Z,99825.97
2023-04-13T07:23:36.203Z,99824.84
2023-04-13T07:28:40.148Z,99838.56
2023-04-13T07:33:44.366Z,99841.03
2023-04-13T07:38:50.043Z,99864.97
2023-04-13T07:43:54.137Z,99865.59
2023-04-13T07:48:58.500Z,99879.75
2023-04-13T07:54:04.131Z,99891.19
2023-04-13T07:59:08.364Z,99901.72
2023-04-13T08:04:12.789Z,99903.25
2023-04-13T08:09:19.150Z,99919.75
2023-04-13T08:14:23.312Z,99920.56
2023-04-13T08:19:27.155Z,99926.06
2023-04-13T08:24:32.922Z,99946.84
2023-04-13T08:29:36.712Z,99951.91
2023-04-13T08:34:40.705Z,99950.69
2023-04-13T08:39:46.343Z,99961.34
2023-04-13T08:44:52.499Z,99953.13
2023-04-13T08:49:58.097Z,99959.91
2023-04-13T08:55:04.261Z,99963.94
2023-04-13T09:00:16.382Z,99983.84
2023-04-13T09:05:21.743Z,99999.34
2023-04-13T09:10:28.652Z,100004.38
2023-04-13T09:15:33.316Z,100026.25
2023-04-13T09:20:38.540Z,100027.13
2023-04-13T09:25:45.321Z,100035.12
2023-04-13T09:30:49.152Z,100053.81
2023-04-13T09:35:53.095Z,100049.69
2023-04-13T09:40:58.919Z,100062.56
2023-04-13T09:46:02.825Z,100069.78
2023-04-13T09:51:08.702Z,100093.56
2023-04-13T09:56:14.184Z,100088.34
2023-04-13T10:01:18.961Z,100102.94
2023-04-13T10:06:22.849Z,100106.28
2023-04-13T10:11:27.998Z,100107.59
2023-04-13T10:16:52.313Z,100124.19
2023-04-13T10:21:57.283Z,100130.19
2023-04-13T10:27:12.796Z,100132.53
2023-04-13T10:32:23.981Z,100143.97
2023-04-13T10:37:29.612Z,100154.84
2023-04-13T10:42:52.028Z,100172.72
2023-04-13T10:47:58.513Z,100193.50
2023-04-13T10:53:05.004Z,100188.12
2023-04-13T10:58:18.211Z,100181.53
2023-04-13T11:03:23.549Z,100202.00
2023-04-13T11:08:30.510Z,100200.75
2023-04-13T11:13:35.878Z,100206.09
2023-04-13T11:18:39.549Z,100203.25
2023-04-13T11:23:44.119Z,100218.06
2023-04-13T11:28:49.144Z,100221.44
2023-04-13T11:33:52.938Z,100225.59
2023-04-13T11:38:57.253Z,100222.38
2023-04-13T11:44:04.144Z,100236.16
2023-04-13T11:49:08.469Z,100239.41
2023-04-13T11:54:12.371Z,100245.25
2023-04-13T11:59:17.784Z,100241.44
2023-04-13T12:04:23.889Z,100241.41
2023-04-13T12:09:54.542Z,100239.53
2023-04-13T12:15:10.751Z,100246.91
2023-04-13T12:20:17.311Z,100230.81
2023-04-13T12:25:23.913Z,100238.81
2023-04-13T12:30:29.658Z,100246.53
2023-04-13T12:35:33.453Z,100262.59
2023-04-13T12:40:37.467Z,100251.00
2023-04-13T12:45:42.521Z,100249.09
2023-04-13T12:50:46.451Z,100259.38
2023-04-13T12:55:50.146Z,100250.78
2023-04-13T13:00:55.248Z,100283.53
2023-04-13T13:05:59.037Z,100268.69
2023-04-13T13:11:02.806Z,100280.87
2023-04-13T13:16:08.546Z,100287.47
2023-04-13T13:21:12.519Z,100276.56
2023-04-13T13:31:24.314Z,100272.91
2023-04-13T13:36:30.616Z,100294.72
2023-04-13T13:41:34.703Z,100294.03
2023-04-13T13:46:39.845Z,100296.62
2023-04-13T13:51:43.879Z,100293.91
2023-04-13T13:56:49.078Z,100312.22
2023-04-13T14:01:54.232Z,100300.63
2023-04-13T14:06:58.274Z,100299.75
2023-04-13T14:12:02.383Z,100300.91
2023-04-13T14:17:07.620Z,100301.59
2023-04-13T14:22:11.507Z,100306.91
2023-04-13T14:27:15.418Z,100316.53
2023-04-13T14:32:20.746Z,100319.06
2023-04-13T14:37:25.174Z,100327.03
2023-04-13T14:42:30.756Z,100315.72
2023-04-13T14:47:36.145Z,100341.75
2023-04-13T14:52:40.341Z,100318.19
2023-04-13T14:57:44.547Z,100332.50
2023-04-13T15:02:50.802Z,100334.84
2023-04-13T15:07:55.731Z,100336.13
2023-04-13T15:12:59.455Z,100345.66
2023-04-13T15:18:05.810Z,100336.06
2023-04-13T15:23:09.858Z,100347.81
2023-04-13T15:28:13.945Z,100335.97
2023-04-13T15:33:19.060Z,100336.88
2023-04-13T15:38:22.914Z,100341.38
2023-04-13T15:43:26.808Z,100356.47
2023-04-13T15:48:31.915Z,100371.06
2023-04-13T15:53:35.998Z,100354.69
2023-04-13T15:58:39.812Z,100369.88
2023-04-13T16:03:45.138Z,100376.97
2023-04-13T16:08:50.482Z,100372.50
2023-04-13T16:13:57.977Z,100370.47
2023-04-13T16:19:03.732Z,100370.91
2023-04-13T16:24:08.557Z,100377.94
2023-04-13T16:29:12.410Z,100381.44
2023-04-13T16:34:25.531Z,100382.28
2023-04-13T16:39:30.439Z,100382.25
2023-04-13T16:44:34.222Z,100400.66
2023-04-13T16:49:39.284Z,100406.69
2023-04-13T16:54:43.943Z,100414.56
2023-04-13T16:59:48.385Z,100412.72
2023-04-13T17:04:54.584Z,100410.88
2023-04-13T17:09:58.399Z,100411.59
2023-04-13T17:15:02.227Z,100416.81
2023-04-13T17:20:09.309Z,100426.97
2023-04-13T17:25:13.408Z,100426.06
2023-04-13T17:30:17.125Z,100444.88
2023-04-13T17:35:22.302Z,100438.78
2023-04-13T17:40:26.196Z,100448.00
2023-04-13T17:45:29.975Z,100455.34
2023-04-13T17:50:35.300Z,100449.06
2023-04-13T17:55:39.806Z,100457.47
2023-04-13T18:00:43.505Z,100463.75
2023-04-13T18:05:48.693Z,100471.22
2023-04-13T18:10:53.366Z,100471.16
2023-04-13T18:15:58.296Z,100486.59
2023-04-13T18:21:03.364Z,100500.66
2023-04-13T18:26:07.201Z,100521.78
2023-04-13T18:31:11.421Z,100503.44
2023-04-13T18:36:17.280Z,100536.09
2023-04-13T18:41:21.107Z,100563.59
2023-04-13T18:46:26.483Z,100562.63
2023-04-13T18:51:32.781Z,100559.09
2023-04-13T18:56:36.607Z,100564.94
2023-04-13T19:01:40.430Z,100565.69
2023-04-13T19:06:45.712Z,100573.28
2023-04-13T19:11:51.578Z,100573.69
2023-04-13T19:16:55.682Z,100595.41
2023-04-13T19:22:00.789Z,100603.25
2023-04-13T19:27:04.627Z,100612.72
2023-04-13T19:32:13.191Z,100623.97
2023-04-13T19:37:18.394Z,100630.47
2023-04-13T19:42:22.350Z,100640.34
2023-04-13T19:47:26.474Z,100647.78
2023-04-13T19:52:31.586Z,100664.47
2023-04-13T19:57:36.728Z,100658.66
2023-04-13T20:02:40.512Z,100670.81
2023-04-13T20:07:45.641Z,100676.81
2023-04-13T20:12:49.562Z,100678.50
2023-04-13T20:17:53.312Z,100672.66
2023-04-13T20:22:58.393Z,100687.13
2023-04-13T20:28:02.245Z,100687.31
2023-04-13T20:33:07.419Z,100684.25
2023-04-13T20:38:13.877Z,100696.06
2023-04-13T20:43:20.501Z,100687.72
2023-04-13T20:53:34.045Z,100692.94
2023-04-13T20:58:38.259Z,100696.69
2023-04-13T21:03:42.216Z,100697.72
2023-04-13T21:08:47.449Z,100699.97
2023-04-13T21:13:51.185Z,100709.66
2023-04-13T21:18:55.337Z,100712.03
2023-04-13T21:24:00.637Z,100706.38
2023-04-13T21:29:04.604Z,100708.56
2023-04-13T21:34:08.380Z,100706.44
2023-04-13T21:39:14.137Z,100697.25
2023-04-13T21:44:29.245Z,100714.75
2023-04-13T21:49:33.673Z,100706.03
2023-04-13T21:54:38.756Z,100710.84
2023-04-13T21:59:42.510Z,100721.00
2023-04-13T22:04:46.235Z,100719.91
2023-04-13T22:09:51.263Z,100720.38
2023-04-13T22:14:55.361Z,100723.53
2023-04-13T22:19:59.068Z,100711.87
2023-04-13T22:25:04.176Z,100714.97
2023-04-13T22:30:09.104Z,100721.31
2023-04-13T22:35:13.179Z,100717.47
2023-04-13T22:40:18.615Z,100728.37
2023-04-13T22:45:22.541Z,100732.78
2023-04-13T22:50:26.505Z,100729.00
2023-04-13T22:55:31.611Z,100732.91
2023-04-13T23:00:35.350Z,100724.91
2023-04-13T23:05:39.194Z,100734.00
2023-04-13T23:10:44.272Z,100738.00
2023-04-13T23:15:48.158Z,100739.34
2023-04-13T23:20:51.893Z,100750.06
2023-04-13T23:25:56.948Z,100748.78
2023-04-13T23:31:04.552Z,100746.84
2023-04-13T23:36:09.114Z,100750.00
2023-04-13T23:41:14.197Z,100753.03
2023-04-13T23:46:18.123Z,100759.56
2023-04-13T23:51:22.886Z,100750.38
2023-04-13T23:56:28.334Z,100756.16
